Аэропорт: Домодедово. Москва

ICAO: UUDD

METAR:
2018/07/16 19:30
UUDD 161930Z 09007MPS 050V110 7000 -TSRA BKN020CB 20/17 Q1008 R88/010095 TEMPO 08008G15MPS 2000 TSRA
METAR:
2018/07/16 18:21
TAF UUDD 161655Z 1618/1724 05006MPS 9999 SCT030 TX28/1711Z TN19/1700Z PROB40 
      TEMPO 1618/1708 -TSRA BKN015CB 
      TEMPO 1708/1719 05011G17MPS 3100 -TSRA SCT011 BKN020CB